Terminal Aerodrome Forecast
Issued by NWS Cleveland, OH

Home | Current Version | Previous Version | Graphics & Text | Print | Product List | Glossary On
Versions: 1 2 3 4 5 6 7 8 9 10 11 12 13 14 15 16 17 18 19 20 21 22 23 24 25 26 27
000
FTUS41 KCLE 201000 AAA
TAFCAK
TAF AMD
KCAK 201006Z 2010/2106 VRB04KT P6SM VCTS SCT015 OVC035CB
      TEMPO 2010/2012 3SM -TSRA BR BKN003 OVC015CB
     FM201200 19006KT 5SM BR SCT008 BKN015
     FM201400 22008KT P6SM BKN025
     FM201700 24009KT P6SM VCTS BKN035CB OVC150
     FM202300 24005KT P6SM BKN040 BKN150=

USA.gov is the U.S. government's official web portal to all federal, state and local government web resources and services.